sensor_id;sensor_type;location;lat;lon;timestamp;P1;durP1;ratioP1;P2;durP2;ratioP2
80541;SDS011;69870;51.460;8.842;2023-05-10T00:01:39;23.33;;;16.70;;
80541;SDS011;69870;51.460;8.842;2023-05-10T00:04:07;25.38;;;17.35;;
80541;SDS011;69870;51.460;8.842;2023-05-10T00:06:34;33.65;;;19.17;;
80541;SDS011;69870;51.460;8.842;2023-05-10T00:09:01;31.13;;;17.25;;
80541;SDS011;69870;51.460;8.842;2023-05-10T00:11:28;27.17;;;18.27;;
80541;SDS011;69870;51.460;8.842;2023-05-10T00:13:54;25.63;;;17.55;;
80541;SDS011;69870;51.460;8.842;2023-05-10T00:16:21;28.20;;;16.67;;
80541;SDS011;69870;51.460;8.842;2023-05-10T00:18:47;28.80;;;16.73;;
80541;SDS011;69870;51.460;8.842;2023-05-10T00:21:15;22.73;;;16.67;;
80541;SDS011;69870;51.460;8.842;2023-05-10T00:23:42;22.42;;;16.50;;
80541;SDS011;69870;51.460;8.842;2023-05-10T00:26:08;27.48;;;17.60;;
80541;SDS011;69870;51.460;8.842;2023-05-10T00:28:36;27.27;;;16.60;;
80541;SDS011;69870;51.460;8.842;2023-05-10T00:31:03;27.80;;;15.88;;
80541;SDS011;69870;51.460;8.842;2023-05-10T00:33:30;26.80;;;16.52;;
80541;SDS011;69870;51.460;8.842;2023-05-10T00:35:56;24.08;;;14.93;;
80541;SDS011;69870;51.460;8.842;2023-05-10T00:38:25;26.60;;;15.35;;
80541;SDS011;69870;51.460;8.842;2023-05-10T00:40:51;18.23;;;13.98;;
80541;SDS011;69870;51.460;8.842;2023-05-10T00:43:25;22.92;;;14.80;;
80541;SDS011;69870;51.460;8.842;2023-05-10T00:45:51;19.35;;;13.15;;
80541;SDS011;69870;51.460;8.842;2023-05-10T00:48:19;24.08;;;14.85;;
80541;SDS011;69870;51.460;8.842;2023-05-10T00:50:46;22.42;;;15.63;;
80541;SDS011;69870;51.460;8.842;2023-05-10T00:53:13;21.15;;;13.02;;
80541;SDS011;69870;51.460;8.842;2023-05-10T00:55:42;19.75;;;14.25;;
80541;SDS011;69870;51.460;8.842;2023-05-10T00:58:09;20.90;;;14.75;;
80541;SDS011;69870;51.460;8.842;2023-05-10T01:00:35;16.77;;;11.40;;
80541;SDS011;69870;51.460;8.842;2023-05-10T01:03:04;25.50;;;12.57;;
80541;SDS011;69870;51.460;8.842;2023-05-10T01:05:30;17.25;;;11.50;;
80541;SDS011;69870;51.460;8.842;2023-05-10T01:07:57;17.88;;;12.02;;
80541;SDS011;69870;51.460;8.842;2023-05-10T01:10:23;19.40;;;11.38;;
80541;SDS011;69870;51.460;8.842;2023-05-10T01:12:51;16.90;;;12.55;;
80541;SDS011;69870;51.460;8.842;2023-05-10T01:15:19;14.27;;;10.98;;
80541;SDS011;69870;51.460;8.842;2023-05-10T01:17:47;21.50;;;12.90;;
80541;SDS011;69870;51.460;8.842;2023-05-10T01:20:15;18.30;;;12.82;;
80541;SDS011;69870;51.460;8.842;2023-05-10T01:23:00;20.40;;;13.48;;
80541;SDS011;69870;51.460;8.842;2023-05-10T01:25:43;24.55;;;13.10;;
80541;SDS011;69870;51.460;8.842;2023-05-10T01:28:39;20.95;;;12.73;;
80541;SDS011;69870;51.460;8.842;2023-05-10T01:34:24;21.83;;;12.80;;
80541;SDS011;69870;51.460;8.842;2023-05-10T01:36:55;17.80;;;11.95;;
80541;SDS011;69870;51.460;8.842;2023-05-10T01:39:30;25.45;;;14.50;;
80541;SDS011;69870;51.460;8.842;2023-05-10T01:42:03;19.25;;;12.88;;
80541;SDS011;69870;51.460;8.842;2023-05-10T01:44:35;21.90;;;12.23;;
80541;SDS011;69870;51.460;8.842;2023-05-10T01:47:05;18.77;;;12.25;;
80541;SDS011;69870;51.460;8.842;2023-05-10T01:49:39;19.45;;;11.65;;
80541;SDS011;69870;51.460;8.842;2023-05-10T01:52:10;17.67;;;11.50;;
80541;SDS011;69870;51.460;8.842;2023-05-10T01:54:41;18.52;;;11.68;;
80541;SDS011;69870;51.460;8.842;2023-05-10T01:57:11;17.73;;;10.75;;
80541;SDS011;69870;51.460;8.842;2023-05-10T01:59:40;20.40;;;11.15;;
80541;SDS011;69870;51.460;8.842;2023-05-10T02:02:11;16.40;;;11.15;;
80541;SDS011;69870;51.460;8.842;2023-05-10T02:04:42;15.93;;;10.93;;
80541;SDS011;69870;51.460;8.842;2023-05-10T02:07:11;11.68;;;7.68;;
80541;SDS011;69870;51.460;8.842;2023-05-10T02:09:38;8.57;;;4.50;;
80541;SDS011;69870;51.460;8.842;2023-05-10T02:12:06;4.22;;;3.17;;
80541;SDS011;69870;51.460;8.842;2023-05-10T02:14:35;4.18;;;3.17;;
80541;SDS011;69870;51.460;8.842;2023-05-10T02:17:03;8.05;;;4.55;;
80541;SDS011;69870;51.460;8.842;2023-05-10T02:19:32;13.20;;;3.35;;
80541;SDS011;69870;51.460;8.842;2023-05-10T02:22:01;4.95;;;2.40;;
80541;SDS011;69870;51.460;8.842;2023-05-10T02:24:31;3.38;;;2.58;;
80541;SDS011;69870;51.460;8.842;2023-05-10T02:26:59;6.00;;;2.65;;
80541;SDS011;69870;51.460;8.842;2023-05-10T02:29:27;2.40;;;1.77;;
80541;SDS011;69870;51.460;8.842;2023-05-10T02:31:55;6.75;;;1.55;;
80541;SDS011;69870;51.460;8.842;2023-05-10T02:34:24;5.72;;;1.88;;
80541;SDS011;69870;51.460;8.842;2023-05-10T02:36:52;2.85;;;1.65;;
80541;SDS011;69870;51.460;8.842;2023-05-10T02:39:21;9.48;;;1.05;;
80541;SDS011;69870;51.460;8.842;2023-05-10T02:41:50;1.55;;;0.98;;
80541;SDS011;69870;51.460;8.842;2023-05-10T02:44:18;2.10;;;1.23;;
80541;SDS011;69870;51.460;8.842;2023-05-10T02:46:45;1.23;;;1.10;;
80541;SDS011;69870;51.460;8.842;2023-05-10T02:49:13;7.65;;;0.90;;
80541;SDS011;69870;51.460;8.842;2023-05-10T02:51:41;3.28;;;1.00;;
80541;SDS011;69870;51.460;8.842;2023-05-10T02:54:10;6.25;;;2.63;;
80541;SDS011;69870;51.460;8.842;2023-05-10T02:56:49;2.75;;;0.63;;
80541;SDS011;69870;51.460;8.842;2023-05-10T02:59:19;0.75;;;0.75;;
80541;SDS011;69870;51.460;8.842;2023-05-10T03:01:46;1.23;;;0.70;;
80541;SDS011;69870;51.460;8.842;2023-05-10T03:04:13;9.57;;;1.13;;
80541;SDS011;69870;51.460;8.842;2023-05-10T03:06:40;3.47;;;0.88;;
80541;SDS011;69870;51.460;8.842;2023-05-10T03:09:07;0.77;;;0.55;;
80541;SDS011;69870;51.460;8.842;2023-05-10T03:11:39;3.75;;;1.00;;
80541;SDS011;69870;51.460;8.842;2023-05-10T03:14:31;0.68;;;0.68;;
80541;SDS011;69870;51.460;8.842;2023-05-10T03:17:10;1.15;;;0.98;;
80541;SDS011;69870;51.460;8.842;2023-05-10T03:19:43;0.73;;;0.60;;
80541;SDS011;69870;51.460;8.842;2023-05-10T03:22:20;4.30;;;0.80;;
80541;SDS011;69870;51.460;8.842;2023-05-10T03:24:50;2.63;;;0.85;;
80541;SDS011;69870;51.460;8.842;2023-05-10T03:27:20;1.92;;;1.10;;
80541;SDS011;69870;51.460;8.842;2023-05-10T03:29:50;1.08;;;0.93;;
80541;SDS011;69870;51.460;8.842;2023-05-10T03:32:17;4.53;;;1.00;;
80541;SDS011;69870;51.460;8.842;2023-05-10T03:34:44;1.42;;;0.70;;
80541;SDS011;69870;51.460;8.842;2023-05-10T03:37:10;1.00;;;0.90;;
80541;SDS011;69870;51.460;8.842;2023-05-10T03:39:37;4.25;;;1.10;;
80541;SDS011;69870;51.460;8.842;2023-05-10T03:42:06;2.05;;;0.80;;
80541;SDS011;69870;51.460;8.842;2023-05-10T03:44:33;3.88;;;0.95;;
80541;SDS011;69870;51.460;8.842;2023-05-10T03:47:00;0.70;;;0.70;;
80541;SDS011;69870;51.460;8.842;2023-05-10T03:49:27;3.70;;;0.80;;
80541;SDS011;69870;51.460;8.842;2023-05-10T03:51:54;1.17;;;0.80;;
80541;SDS011;69870;51.460;8.842;2023-05-10T03:54:21;5.15;;;1.27;;
80541;SDS011;69870;51.460;8.842;2023-05-10T03:56:47;0.52;;;0.52;;
80541;SDS011;69870;51.460;8.842;2023-05-10T03:59:15;1.17;;;0.90;;
80541;SDS011;69870;51.460;8.842;2023-05-10T04:01:41;6.70;;;1.00;;
80541;SDS011;69870;51.460;8.842;2023-05-10T04:04:09;1.98;;;1.05;;
80541;SDS011;69870;51.460;8.842;2023-05-10T04:06:37;3.60;;;0.88;;
80541;SDS011;69870;51.460;8.842;2023-05-10T04:09:04;3.25;;;1.20;;
80541;SDS011;69870;51.460;8.842;2023-05-10T04:11:30;6.07;;;1.08;;
80541;SDS011;69870;51.460;8.842;2023-05-10T04:13:57;4.05;;;1.05;;
80541;SDS011;69870;51.460;8.842;2023-05-10T04:16:24;2.80;;;0.95;;
80541;SDS011;69870;51.460;8.842;2023-05-10T04:18:50;1.42;;;1.00;;
80541;SDS011;69870;51.460;8.842;2023-05-10T04:21:18;1.38;;;1.10;;
80541;SDS011;69870;51.460;8.842;2023-05-10T04:23:45;3.88;;;1.38;;
80541;SDS011;69870;51.460;8.842;2023-05-10T04:26:12;6.45;;;1.30;;
80541;SDS011;69870;51.460;8.842;2023-05-10T04:28:38;0.88;;;0.85;;
80541;SDS011;69870;51.460;8.842;2023-05-10T04:31:05;5.65;;;1.40;;
80541;SDS011;69870;51.460;8.842;2023-05-10T04:33:33;1.13;;;0.93;;
80541;SDS011;69870;51.460;8.842;2023-05-10T04:36:00;1.48;;;1.00;;
80541;SDS011;69870;51.460;8.842;2023-05-10T04:38:29;1.35;;;1.13;;
80541;SDS011;69870;51.460;8.842;2023-05-10T04:41:03;2.97;;;1.15;;
80541;SDS011;69870;51.460;8.842;2023-05-10T04:43:30;5.43;;;1.23;;
80541;SDS011;69870;51.460;8.842;2023-05-10T04:45:56;4.68;;;1.20;;
80541;SDS011;69870;51.460;8.842;2023-05-10T04:48:23;3.17;;;1.08;;
80541;SDS011;69870;51.460;8.842;2023-05-10T04:50:50;3.05;;;1.02;;
80541;SDS011;69870;51.460;8.842;2023-05-10T04:53:16;4.43;;;1.13;;
80541;SDS011;69870;51.460;8.842;2023-05-10T04:55:44;1.58;;;0.90;;
80541;SDS011;69870;51.460;8.842;2023-05-10T04:58:11;1.92;;;1.33;;
80541;SDS011;69870;51.460;8.842;2023-05-10T05:00:38;2.25;;;1.05;;
80541;SDS011;69870;51.460;8.842;2023-05-10T05:03:04;4.03;;;1.35;;
80541;SDS011;69870;51.460;8.842;2023-05-10T05:05:31;7.05;;;1.20;;
80541;SDS011;69870;51.460;8.842;2023-05-10T05:07:57;2.13;;;1.15;;
80541;SDS011;69870;51.460;8.842;2023-05-10T05:10:24;1.30;;;1.17;;
80541;SDS011;69870;51.460;8.842;2023-05-10T05:12:52;1.83;;;1.38;;
80541;SDS011;69870;51.460;8.842;2023-05-10T05:15:18;10.70;;;2.10;;
80541;SDS011;69870;51.460;8.842;2023-05-10T05:17:45;1.85;;;0.82;;
80541;SDS011;69870;51.460;8.842;2023-05-10T05:20:12;1.08;;;0.70;;
80541;SDS011;69870;51.460;8.842;2023-05-10T05:22:39;1.70;;;0.75;;
80541;SDS011;69870;51.460;8.842;2023-05-10T05:25:05;3.60;;;0.98;;
80541;SDS011;69870;51.460;8.842;2023-05-10T05:27:33;4.32;;;0.80;;
80541;SDS011;69870;51.460;8.842;2023-05-10T05:30:00;3.08;;;0.95;;
80541;SDS011;69870;51.460;8.842;2023-05-10T05:32:27;1.65;;;0.80;;
80541;SDS011;69870;51.460;8.842;2023-05-10T05:34:54;7.00;;;1.30;;
80541;SDS011;69870;51.460;8.842;2023-05-10T05:37:20;5.15;;;1.10;;
80541;SDS011;69870;51.460;8.842;2023-05-10T05:39:47;3.70;;;0.50;;
80541;SDS011;69870;51.460;8.842;2023-05-10T05:42:14;4.15;;;0.90;;
80541;SDS011;69870;51.460;8.842;2023-05-10T05:44:42;1.48;;;0.75;;
80541;SDS011;69870;51.460;8.842;2023-05-10T05:47:11;2.67;;;0.70;;
80541;SDS011;69870;51.460;8.842;2023-05-10T05:49:37;5.03;;;0.70;;
80541;SDS011;69870;51.460;8.842;2023-05-10T05:52:04;0.90;;;0.43;;
80541;SDS011;69870;51.460;8.842;2023-05-10T05:54:31;2.85;;;0.80;;
80541;SDS011;69870;51.460;8.842;2023-05-10T05:56:58;3.17;;;0.73;;
80541;SDS011;69870;51.460;8.842;2023-05-10T05:59:25;2.45;;;0.60;;
80541;SDS011;69870;51.460;8.842;2023-05-10T06:01:52;4.65;;;0.75;;
80541;SDS011;69870;51.460;8.842;2023-05-10T06:04:20;1.02;;;0.70;;
80541;SDS011;69870;51.460;8.842;2023-05-10T06:06:46;1.58;;;0.70;;
80541;SDS011;69870;51.460;8.842;2023-05-10T06:09:13;2.40;;;0.73;;
80541;SDS011;69870;51.460;8.842;2023-05-10T06:11:39;1.05;;;0.68;;
80541;SDS011;69870;51.460;8.842;2023-05-10T06:14:06;2.38;;;0.73;;
80541;SDS011;69870;51.460;8.842;2023-05-10T06:16:33;2.25;;;0.80;;
80541;SDS011;69870;51.460;8.842;2023-05-10T06:18:59;5.22;;;0.90;;
80541;SDS011;69870;51.460;8.842;2023-05-10T06:21:27;7.13;;;0.90;;
80541;SDS011;69870;51.460;8.842;2023-05-10T06:23:54;2.13;;;0.90;;
80541;SDS011;69870;51.460;8.842;2023-05-10T06:26:21;1.73;;;0.80;;
80541;SDS011;69870;51.460;8.842;2023-05-10T06:28:47;4.75;;;1.05;;
80541;SDS011;69870;51.460;8.842;2023-05-10T06:31:14;8.45;;;0.80;;
80541;SDS011;69870;51.460;8.842;2023-05-10T06:33:41;13.95;;;1.10;;
80541;SDS011;69870;51.460;8.842;2023-05-10T06:36:07;7.00;;;1.00;;
80541;SDS011;69870;51.460;8.842;2023-05-10T06:38:35;0.93;;;0.65;;
80541;SDS011;69870;51.460;8.842;2023-05-10T06:41:02;0.70;;;0.65;;
80541;SDS011;69870;51.460;8.842;2023-05-10T06:43:29;9.07;;;1.35;;
80541;SDS011;69870;51.460;8.842;2023-05-10T06:45:55;11.02;;;1.10;;
80541;SDS011;69870;51.460;8.842;2023-05-10T06:48:22;5.03;;;0.82;;
80541;SDS011;69870;51.460;8.842;2023-05-10T06:50:48;0.75;;;0.60;;
80541;SDS011;69870;51.460;8.842;2023-05-10T06:53:15;13.95;;;1.23;;
80541;SDS011;69870;51.460;8.842;2023-05-10T06:55:43;3.67;;;0.93;;
80541;SDS011;69870;51.460;8.842;2023-05-10T06:58:10;1.65;;;0.82;;
80541;SDS011;69870;51.460;8.842;2023-05-10T07:00:36;3.42;;;0.82;;
80541;SDS011;69870;51.460;8.842;2023-05-10T07:03:05;3.53;;;0.60;;
80541;SDS011;69870;51.460;8.842;2023-05-10T07:05:32;3.03;;;0.80;;
80541;SDS011;69870;51.460;8.842;2023-05-10T07:07:58;3.38;;;0.80;;
80541;SDS011;69870;51.460;8.842;2023-05-10T07:10:25;1.25;;;0.70;;
80541;SDS011;69870;51.460;8.842;2023-05-10T07:12:53;8.93;;;0.85;;
80541;SDS011;69870;51.460;8.842;2023-05-10T07:15:19;3.95;;;0.95;;
80541;SDS011;69870;51.460;8.842;2023-05-10T07:17:46;4.32;;;1.02;;
80541;SDS011;69870;51.460;8.842;2023-05-10T07:20:13;4.93;;;0.90;;
80541;SDS011;69870;51.460;8.842;2023-05-10T07:22:39;1.10;;;0.73;;
80541;SDS011;69870;51.460;8.842;2023-05-10T07:25:06;2.10;;;0.93;;
80541;SDS011;69870;51.460;8.842;2023-05-10T07:27:33;4.43;;;1.00;;
80541;SDS011;69870;51.460;8.842;2023-05-10T07:30:01;2.40;;;1.20;;
80541;SDS011;69870;51.460;8.842;2023-05-10T07:32:28;2.50;;;1.23;;
80541;SDS011;69870;51.460;8.842;2023-05-10T07:34:54;6.28;;;1.30;;
80541;SDS011;69870;51.460;8.842;2023-05-10T07:37:21;4.85;;;1.75;;
80541;SDS011;69870;51.460;8.842;2023-05-10T07:39:48;3.25;;;1.95;;
80541;SDS011;69870;51.460;8.842;2023-05-10T07:42:14;3.75;;;1.95;;
80541;SDS011;69870;51.460;8.842;2023-05-10T07:44:41;2.95;;;2.08;;
80541;SDS011;69870;51.460;8.842;2023-05-10T07:47:09;9.50;;;3.17;;
80541;SDS011;69870;51.460;8.842;2023-05-10T07:49:36;8.18;;;3.85;;
80541;SDS011;69870;51.460;8.842;2023-05-10T07:52:03;10.15;;;5.53;;
80541;SDS011;69870;51.460;8.842;2023-05-10T07:54:30;16.83;;;5.20;;
80541;SDS011;69870;51.460;8.842;2023-05-10T07:56:56;16.35;;;7.00;;
80541;SDS011;69870;51.460;8.842;2023-05-10T07:59:23;15.48;;;7.43;;
80541;SDS011;69870;51.460;8.842;2023-05-10T08:01:49;16.35;;;6.75;;
80541;SDS011;69870;51.460;8.842;2023-05-10T08:04:17;14.85;;;7.15;;
80541;SDS011;69870;51.460;8.842;2023-05-10T08:06:44;14.23;;;8.23;;
80541;SDS011;69870;51.460;8.842;2023-05-10T08:09:10;15.02;;;7.28;;
80541;SDS011;69870;51.460;8.842;2023-05-10T08:11:37;12.10;;;7.72;;
80541;SDS011;69870;51.460;8.842;2023-05-10T08:14:04;10.50;;;6.13;;
80541;SDS011;69870;51.460;8.842;2023-05-10T08:16:30;12.07;;;7.65;;
80541;SDS011;69870;51.460;8.842;2023-05-10T08:18:57;10.32;;;6.68;;
80541;SDS011;69870;51.460;8.842;2023-05-10T08:21:25;16.85;;;6.93;;
80541;SDS011;69870;51.460;8.842;2023-05-10T08:23:52;12.77;;;7.85;;
80541;SDS011;69870;51.460;8.842;2023-05-10T08:26:18;19.35;;;8.02;;
80541;SDS011;69870;51.460;8.842;2023-05-10T08:28:46;14.57;;;6.65;;
80541;SDS011;69870;51.460;8.842;2023-05-10T08:31:12;8.93;;;6.35;;
80541;SDS011;69870;51.460;8.842;2023-05-10T08:33:39;11.43;;;6.18;;
80541;SDS011;69870;51.460;8.842;2023-05-10T08:36:05;9.38;;;5.38;;
80541;SDS011;69870;51.460;8.842;2023-05-10T08:38:33;8.88;;;6.18;;
80541;SDS011;69870;51.460;8.842;2023-05-10T08:41:00;7.82;;;5.50;;
80541;SDS011;69870;51.460;8.842;2023-05-10T08:43:28;18.73;;;6.53;;
80541;SDS011;69870;51.460;8.842;2023-05-10T08:45:56;16.25;;;6.32;;
80541;SDS011;69870;51.460;8.842;2023-05-10T08:48:26;14.10;;;6.15;;
80541;SDS011;69870;51.460;8.842;2023-05-10T08:50:55;17.73;;;6.82;;
80541;SDS011;69870;51.460;8.842;2023-05-10T08:53:24;9.40;;;5.20;;
80541;SDS011;69870;51.460;8.842;2023-05-10T08:55:54;11.48;;;5.50;;
80541;SDS011;69870;51.460;8.842;2023-05-10T08:58:21;11.75;;;5.50;;
80541;SDS011;69870;51.460;8.842;2023-05-10T09:00:48;12.60;;;6.03;;
80541;SDS011;69870;51.460;8.842;2023-05-10T09:03:15;16.13;;;7.53;;
80541;SDS011;69870;51.460;8.842;2023-05-10T09:05:42;15.32;;;9.20;;
80541;SDS011;69870;51.460;8.842;2023-05-10T09:08:09;14.38;;;10.00;;
80541;SDS011;69870;51.460;8.842;2023-05-10T09:10:38;17.08;;;9.48;;
80541;SDS011;69870;51.460;8.842;2023-05-10T09:13:08;18.73;;;10.13;;
80541;SDS011;69870;51.460;8.842;2023-05-10T09:15:36;21.58;;;10.40;;
80541;SDS011;69870;51.460;8.842;2023-05-10T09:18:03;19.90;;;12.00;;
80541;SDS011;69870;51.460;8.842;2023-05-10T09:20:30;18.10;;;10.13;;
80541;SDS011;69870;51.460;8.842;2023-05-10T09:22:56;23.92;;;11.07;;
80541;SDS011;69870;51.460;8.842;2023-05-10T09:25:23;25.48;;;10.15;;
80541;SDS011;69870;51.460;8.842;2023-05-10T09:27:50;19.67;;;10.43;;
80541;SDS011;69870;51.460;8.842;2023-05-10T09:30:24;23.58;;;12.07;;
80541;SDS011;69870;51.460;8.842;2023-05-10T09:32:52;14.18;;;9.15;;
80541;SDS011;69870;51.460;8.842;2023-05-10T09:35:21;20.60;;;10.15;;
80541;SDS011;69870;51.460;8.842;2023-05-10T09:37:49;17.90;;;9.15;;
80541;SDS011;69870;51.460;8.842;2023-05-10T09:40:19;16.25;;;9.20;;
80541;SDS011;69870;51.460;8.842;2023-05-10T09:42:56;16.58;;;9.27;;
80541;SDS011;69870;51.460;8.842;2023-05-10T09:45:25;17.27;;;9.57;;
80541;SDS011;69870;51.460;8.842;2023-05-10T09:47:53;20.77;;;10.15;;
80541;SDS011;69870;51.460;8.842;2023-05-10T09:50:20;16.95;;;10.27;;
80541;SDS011;69870;51.460;8.842;2023-05-10T09:52:48;16.85;;;10.07;;
80541;SDS011;69870;51.460;8.842;2023-05-10T09:55:16;19.17;;;9.95;;
80541;SDS011;69870;51.460;8.842;2023-05-10T09:57:45;19.40;;;9.32;;
80541;SDS011;69870;51.460;8.842;2023-05-10T10:00:15;19.80;;;10.15;;
80541;SDS011;69870;51.460;8.842;2023-05-10T10:02:46;16.38;;;9.45;;
80541;SDS011;69870;51.460;8.842;2023-05-10T10:05:13;15.07;;;10.02;;
80541;SDS011;69870;51.460;8.842;2023-05-10T10:07:41;16.98;;;9.65;;
80541;SDS011;69870;51.460;8.842;2023-05-10T10:10:08;17.65;;;9.02;;
80541;SDS011;69870;51.460;8.842;2023-05-10T10:12:38;17.95;;;10.43;;
80541;SDS011;69870;51.460;8.842;2023-05-10T10:15:07;13.45;;;8.90;;
80541;SDS011;69870;51.460;8.842;2023-05-10T10:17:35;20.88;;;9.50;;
80541;SDS011;69870;51.460;8.842;2023-05-10T10:20:05;23.92;;;9.60;;
80541;SDS011;69870;51.460;8.842;2023-05-10T10:22:33;12.75;;;8.93;;
80541;SDS011;69870;51.460;8.842;2023-05-10T10:25:00;15.57;;;8.77;;
80541;SDS011;69870;51.460;8.842;2023-05-10T10:27:28;21.17;;;9.30;;
80541;SDS011;69870;51.460;8.842;2023-05-10T10:30:10;18.92;;;11.15;;
80541;SDS011;69870;51.460;8.842;2023-05-10T10:32:53;19.20;;;9.02;;
80541;SDS011;69870;51.460;8.842;2023-05-10T10:35:34;27.98;;;10.93;;
80541;SDS011;69870;51.460;8.842;2023-05-10T10:38:01;15.57;;;9.35;;
80541;SDS011;69870;51.460;8.842;2023-05-10T10:40:28;14.90;;;9.02;;
80541;SDS011;69870;51.460;8.842;2023-05-10T10:42:56;19.58;;;9.15;;
80541;SDS011;69870;51.460;8.842;2023-05-10T10:45:24;12.82;;;8.30;;
80541;SDS011;69870;51.460;8.842;2023-05-10T10:50:57;14.57;;;8.15;;
80541;SDS011;69870;51.460;8.842;2023-05-10T10:53:25;13.57;;;8.57;;
80541;SDS011;69870;51.460;8.842;2023-05-10T10:56:02;18.05;;;7.97;;
80541;SDS011;69870;51.460;8.842;2023-05-10T10:58:33;13.07;;;7.38;;
80541;SDS011;69870;51.460;8.842;2023-05-10T11:01:10;13.80;;;7.47;;
80541;SDS011;69870;51.460;8.842;2023-05-10T11:03:39;13.93;;;7.63;;
80541;SDS011;69870;51.460;8.842;2023-05-10T11:06:08;15.80;;;7.70;;
80541;SDS011;69870;51.460;8.842;2023-05-10T11:08:41;17.90;;;7.30;;
80541;SDS011;69870;51.460;8.842;2023-05-10T11:11:09;14.05;;;6.40;;
80541;SDS011;69870;51.460;8.842;2023-05-10T11:13:39;12.50;;;6.72;;
80541;SDS011;69870;51.460;8.842;2023-05-10T11:16:11;12.40;;;6.22;;
80541;SDS011;69870;51.460;8.842;2023-05-10T11:18:39;10.15;;;6.70;;
80541;SDS011;69870;51.460;8.842;2023-05-10T11:21:09;15.15;;;7.05;;
80541;SDS011;69870;51.460;8.842;2023-05-10T11:23:49;8.27;;;5.80;;
80541;SDS011;69870;51.460;8.842;2023-05-10T11:26:17;12.45;;;6.03;;
80541;SDS011;69870;51.460;8.842;2023-05-10T11:28:48;16.17;;;6.43;;
80541;SDS011;69870;51.460;8.842;2023-05-10T11:31:15;11.80;;;6.45;;
80541;SDS011;69870;51.460;8.842;2023-05-10T11:33:42;10.55;;;6.60;;
80541;SDS011;69870;51.460;8.842;2023-05-10T11:36:12;13.65;;;7.15;;
80541;SDS011;69870;51.460;8.842;2023-05-10T11:38:40;11.82;;;7.25;;
80541;SDS011;69870;51.460;8.842;2023-05-10T11:41:07;12.75;;;7.10;;
80541;SDS011;69870;51.460;8.842;2023-05-10T11:43:36;12.60;;;7.40;;
80541;SDS011;69870;51.460;8.842;2023-05-10T11:46:04;11.48;;;6.72;;
80541;SDS011;69870;51.460;8.842;2023-05-10T11:48:30;10.48;;;6.82;;
80541;SDS011;69870;51.460;8.842;2023-05-10T11:50:57;16.60;;;7.18;;
80541;SDS011;69870;51.460;8.842;2023-05-10T11:53:26;16.42;;;6.10;;
80541;SDS011;69870;51.460;8.842;2023-05-10T11:55:53;15.75;;;5.70;;
80541;SDS011;69870;51.460;8.842;2023-05-10T11:58:20;9.98;;;5.45;;
80541;SDS011;69870;51.460;8.842;2023-05-10T12:00:48;8.85;;;3.95;;
80541;SDS011;69870;51.460;8.842;2023-05-10T12:03:16;9.90;;;3.95;;
80541;SDS011;69870;51.460;8.842;2023-05-10T12:05:43;7.68;;;2.90;;
80541;SDS011;69870;51.460;8.842;2023-05-10T12:08:13;4.18;;;2.60;;
80541;SDS011;69870;51.460;8.842;2023-05-10T12:10:42;2.47;;;2.05;;
80541;SDS011;69870;51.460;8.842;2023-05-10T12:13:11;5.85;;;1.80;;
80541;SDS011;69870;51.460;8.842;2023-05-10T12:15:39;2.33;;;1.50;;
80541;SDS011;69870;51.460;8.842;2023-05-10T12:18:07;3.13;;;1.60;;
80541;SDS011;69870;51.460;8.842;2023-05-10T12:20:35;6.45;;;1.67;;
80541;SDS011;69870;51.460;8.842;2023-05-10T12:23:02;5.10;;;2.03;;
80541;SDS011;69870;51.460;8.842;2023-05-10T12:25:30;3.63;;;1.90;;
80541;SDS011;69870;51.460;8.842;2023-05-10T12:28:00;10.90;;;2.35;;
80541;SDS011;69870;51.460;8.842;2023-05-10T12:30:30;7.03;;;2.17;;
80541;SDS011;69870;51.460;8.842;2023-05-10T12:32:59;4.13;;;1.98;;
80541;SDS011;69870;51.460;8.842;2023-05-10T12:35:29;2.95;;;2.00;;
80541;SDS011;69870;51.460;8.842;2023-05-10T12:37:57;7.18;;;3.10;;
80541;SDS011;69870;51.460;8.842;2023-05-10T12:40:24;3.75;;;2.90;;
80541;SDS011;69870;51.460;8.842;2023-05-10T12:42:50;5.18;;;2.85;;
80541;SDS011;69870;51.460;8.842;2023-05-10T12:45:19;4.13;;;3.03;;
80541;SDS011;69870;51.460;8.842;2023-05-10T12:47:45;12.10;;;4.85;;
80541;SDS011;69870;51.460;8.842;2023-05-10T12:50:12;4.20;;;2.97;;
80541;SDS011;69870;51.460;8.842;2023-05-10T12:52:38;8.63;;;3.75;;
80541;SDS011;69870;51.460;8.842;2023-05-10T12:55:05;5.22;;;3.30;;
80541;SDS011;69870;51.460;8.842;2023-05-10T12:57:32;8.25;;;3.50;;
80541;SDS011;69870;51.460;8.842;2023-05-10T12:59:58;7.38;;;4.15;;
80541;SDS011;69870;51.460;8.842;2023-05-10T13:02:26;4.90;;;3.60;;
80541;SDS011;69870;51.460;8.842;2023-05-10T13:04:55;11.15;;;4.03;;
80541;SDS011;69870;51.460;8.842;2023-05-10T13:07:21;13.95;;;3.60;;
80541;SDS011;69870;51.460;8.842;2023-05-10T13:09:48;5.35;;;3.63;;
80541;SDS011;69870;51.460;8.842;2023-05-10T13:12:15;5.88;;;3.70;;
80541;SDS011;69870;51.460;8.842;2023-05-10T13:14:41;6.05;;;4.25;;
80541;SDS011;69870;51.460;8.842;2023-05-10T13:17:08;10.95;;;4.47;;
80541;SDS011;69870;51.460;8.842;2023-05-10T13:19:36;12.77;;;3.83;;
80541;SDS011;69870;51.460;8.842;2023-05-10T13:22:02;10.93;;;4.05;;
80541;SDS011;69870;51.460;8.842;2023-05-10T13:24:29;7.38;;;4.30;;
80541;SDS011;69870;51.460;8.842;2023-05-10T13:26:56;7.57;;;3.95;;
80541;SDS011;69870;51.460;8.842;2023-05-10T13:29:22;9.85;;;3.80;;
80541;SDS011;69870;51.460;8.842;2023-05-10T13:31:49;9.07;;;5.30;;
80541;SDS011;69870;51.460;8.842;2023-05-10T13:34:16;9.40;;;5.10;;
80541;SDS011;69870;51.460;8.842;2023-05-10T13:36:47;8.73;;;4.35;;
80541;SDS011;69870;51.460;8.842;2023-05-10T13:39:14;9.73;;;5.82;;
80541;SDS011;69870;51.460;8.842;2023-05-10T13:41:40;10.00;;;4.50;;
80541;SDS011;69870;51.460;8.842;2023-05-10T13:44:07;8.98;;;4.80;;
80541;SDS011;69870;51.460;8.842;2023-05-10T13:46:33;7.88;;;4.15;;
80541;SDS011;69870;51.460;8.842;2023-05-10T13:49:00;12.13;;;5.03;;
80541;SDS011;69870;51.460;8.842;2023-05-10T13:51:27;13.27;;;4.00;;
80541;SDS011;69870;51.460;8.842;2023-05-10T13:53:55;8.70;;;4.07;;
80541;SDS011;69870;51.460;8.842;2023-05-10T13:56:21;11.05;;;4.13;;
80541;SDS011;69870;51.460;8.842;2023-05-10T13:58:48;10.00;;;4.45;;
80541;SDS011;69870;51.460;8.842;2023-05-10T14:01:15;7.68;;;4.60;;
80541;SDS011;69870;51.460;8.842;2023-05-10T14:03:41;8.57;;;4.35;;
80541;SDS011;69870;51.460;8.842;2023-05-10T14:06:08;9.77;;;4.35;;
80541;SDS011;69870;51.460;8.842;2023-05-10T14:08:35;8.00;;;4.30;;
80541;SDS011;69870;51.460;8.842;2023-05-10T14:11:03;8.20;;;4.47;;
80541;SDS011;69870;51.460;8.842;2023-05-10T14:13:30;6.90;;;4.03;;
80541;SDS011;69870;51.460;8.842;2023-05-10T14:15:56;10.38;;;4.40;;
80541;SDS011;69870;51.460;8.842;2023-05-10T14:18:25;8.93;;;4.03;;
80541;SDS011;69870;51.460;8.842;2023-05-10T14:20:52;7.53;;;3.97;;
80541;SDS011;69870;51.460;8.842;2023-05-10T14:23:18;7.45;;;4.47;;
80541;SDS011;69870;51.460;8.842;2023-05-10T14:25:49;11.48;;;5.65;;
80541;SDS011;69870;51.460;8.842;2023-05-10T14:28:17;10.70;;;5.38;;
80541;SDS011;69870;51.460;8.842;2023-05-10T14:30:45;12.07;;;5.07;;
80541;SDS011;69870;51.460;8.842;2023-05-10T14:33:12;9.13;;;5.53;;
80541;SDS011;69870;51.460;8.842;2023-05-10T14:35:38;9.63;;;5.20;;
80541;SDS011;69870;51.460;8.842;2023-05-10T14:38:05;18.40;;;6.43;;
80541;SDS011;69870;51.460;8.842;2023-05-10T14:40:32;12.57;;;5.68;;
80541;SDS011;69870;51.460;8.842;2023-05-10T14:42:59;11.63;;;5.13;;
80541;SDS011;69870;51.460;8.842;2023-05-10T14:45:27;11.65;;;5.03;;
80541;SDS011;69870;51.460;8.842;2023-05-10T14:47:54;10.32;;;5.70;;
80541;SDS011;69870;51.460;8.842;2023-05-10T14:50:20;12.95;;;4.93;;